sensor_id;sensor_type;location;lat;lon;timestamp;pressure;altitude;pressure_sealevel;temperature;humidity
41703;BME280;861;48.808;9.006;2024-03-29T00:02:17;95421.91;;;8.71;55.54
41703;BME280;861;48.808;9.006;2024-03-29T00:04:43;95414.75;;;8.81;55.66
41703;BME280;861;48.808;9.006;2024-03-29T00:07:10;95406.28;;;8.79;55.92
41703;BME280;861;48.808;9.006;2024-03-29T00:09:36;95400.91;;;8.75;56.13
41703;BME280;861;48.808;9.006;2024-03-29T00:12:03;95401.78;;;8.92;55.55
41703;BME280;861;48.808;9.006;2024-03-29T00:14:31;95393.88;;;8.78;56.47
41703;BME280;861;48.808;9.006;2024-03-29T00:16:58;95392.25;;;8.84;55.74
41703;BME280;861;48.808;9.006;2024-03-29T00:19:24;95383.69;;;8.85;56.49
41703;BME280;861;48.808;9.006;2024-03-29T00:21:51;95381.13;;;8.98;56.13
41703;BME280;861;48.808;9.006;2024-03-29T00:24:17;95373.69;;;9.02;56.01
41703;BME280;861;48.808;9.006;2024-03-29T00:26:44;95371.44;;;8.97;56.21
41703;BME280;861;48.808;9.006;2024-03-29T00:29:10;95365.44;;;9.09;55.79
41703;BME280;861;48.808;9.006;2024-03-29T00:31:37;95350.22;;;8.92;55.89
41703;BME280;861;48.808;9.006;2024-03-29T00:34:04;95345.75;;;9.01;55.80
41703;BME280;861;48.808;9.006;2024-03-29T00:36:30;95330.56;;;9.07;56.25
41703;BME280;861;48.808;9.006;2024-03-29T00:38:57;95320.31;;;9.15;55.89
41703;BME280;861;48.808;9.006;2024-03-29T00:41:23;95322.84;;;8.83;56.75
41703;BME280;861;48.808;9.006;2024-03-29T00:43:50;95317.63;;;8.92;56.34
41703;BME280;861;48.808;9.006;2024-03-29T00:46:17;95317.88;;;9.01;56.52
41703;BME280;861;48.808;9.006;2024-03-29T00:48:44;95310.78;;;9.07;56.49
41703;BME280;861;48.808;9.006;2024-03-29T00:51:13;95311.47;;;9.11;56.49
41703;BME280;861;48.808;9.006;2024-03-29T00:53:40;95300.91;;;9.16;56.33
41703;BME280;861;48.808;9.006;2024-03-29T00:56:06;95316.00;;;9.37;56.03
41703;BME280;861;48.808;9.006;2024-03-29T00:58:33;95324.72;;;9.09;56.08
41703;BME280;861;48.808;9.006;2024-03-29T01:00:59;95315.44;;;9.26;56.18
41703;BME280;861;48.808;9.006;2024-03-29T01:03:26;95330.41;;;9.14;56.45
41703;BME280;861;48.808;9.006;2024-03-29T01:05:55;95340.06;;;8.96;56.80
41703;BME280;861;48.808;9.006;2024-03-29T01:08:21;95329.78;;;9.07;56.99
41703;BME280;861;48.808;9.006;2024-03-29T01:10:50;95329.16;;;9.19;56.47
41703;BME280;861;48.808;9.006;2024-03-29T01:13:16;95313.19;;;9.60;55.36
41703;BME280;861;48.808;9.006;2024-03-29T01:15:43;95311.25;;;9.41;55.71
41703;BME280;861;48.808;9.006;2024-03-29T01:18:09;95301.16;;;9.02;56.84
41703;BME280;861;48.808;9.006;2024-03-29T01:20:37;95311.75;;;9.16;57.07
41703;BME280;861;48.808;9.006;2024-03-29T01:23:03;95302.97;;;9.28;56.58
41703;BME280;861;48.808;9.006;2024-03-29T01:25:30;95302.78;;;9.55;56.16
41703;BME280;861;48.808;9.006;2024-03-29T01:27:57;95311.69;;;9.75;55.85
41703;BME280;861;48.808;9.006;2024-03-29T01:30:23;95309.44;;;10.06;55.02
41703;BME280;861;48.808;9.006;2024-03-29T01:32:50;95290.88;;;10.20;54.69
41703;BME280;861;48.808;9.006;2024-03-29T01:35:17;95284.41;;;10.30;54.37
41703;BME280;861;48.808;9.006;2024-03-29T01:37:43;95268.16;;;10.43;54.05
41703;BME280;861;48.808;9.006;2024-03-29T01:40:10;95272.63;;;10.49;53.94
41703;BME280;861;48.808;9.006;2024-03-29T01:42:37;95271.03;;;10.52;54.71
41703;BME280;861;48.808;9.006;2024-03-29T01:45:06;95271.47;;;10.50;54.87
41703;BME280;861;48.808;9.006;2024-03-29T01:47:35;95284.78;;;10.61;54.00
41703;BME280;861;48.808;9.006;2024-03-29T01:50:02;95287.94;;;10.59;53.62
41703;BME280;861;48.808;9.006;2024-03-29T01:52:30;95291.88;;;10.58;54.12
41703;BME280;861;48.808;9.006;2024-03-29T01:54:57;95290.50;;;10.50;54.29
41703;BME280;861;48.808;9.006;2024-03-29T01:57:24;95289.31;;;10.51;54.29
41703;BME280;861;48.808;9.006;2024-03-29T01:59:52;95284.50;;;10.43;54.41
41703;BME280;861;48.808;9.006;2024-03-29T02:02:19;95283.44;;;10.53;54.14
41703;BME280;861;48.808;9.006;2024-03-29T02:04:46;95282.34;;;10.50;53.94
41703;BME280;861;48.808;9.006;2024-03-29T02:07:14;95281.78;;;10.43;54.02
41703;BME280;861;48.808;9.006;2024-03-29T02:09:41;95284.06;;;10.44;54.76
41703;BME280;861;48.808;9.006;2024-03-29T02:12:08;95280.00;;;10.36;54.56
41703;BME280;861;48.808;9.006;2024-03-29T02:14:35;95293.50;;;10.24;54.95
41703;BME280;861;48.808;9.006;2024-03-29T02:17:01;95302.31;;;10.12;55.51
41703;BME280;861;48.808;9.006;2024-03-29T02:19:28;95284.22;;;10.21;54.98
41703;BME280;861;48.808;9.006;2024-03-29T02:22:00;95274.19;;;10.18;55.40
41703;BME280;861;48.808;9.006;2024-03-29T02:24:32;95266.63;;;10.26;55.28
41703;BME280;861;48.808;9.006;2024-03-29T02:26:58;95271.41;;;10.22;54.92
41703;BME280;861;48.808;9.006;2024-03-29T02:29:25;95277.19;;;10.40;54.84
41703;BME280;861;48.808;9.006;2024-03-29T02:31:52;95266.91;;;10.31;54.58
41703;BME280;861;48.808;9.006;2024-03-29T02:34:18;95284.00;;;10.32;55.17
41703;BME280;861;48.808;9.006;2024-03-29T02:36:45;95280.66;;;10.40;54.87
41703;BME280;861;48.808;9.006;2024-03-29T02:39:12;95266.97;;;10.28;54.86
41703;BME280;861;48.808;9.006;2024-03-29T02:41:38;95260.44;;;10.09;55.40
41703;BME280;861;48.808;9.006;2024-03-29T02:44:05;95266.75;;;10.22;55.24
41703;BME280;861;48.808;9.006;2024-03-29T02:46:32;95260.53;;;10.22;55.22
41703;BME280;861;48.808;9.006;2024-03-29T02:48:58;95260.44;;;10.25;55.36
41703;BME280;861;48.808;9.006;2024-03-29T02:51:25;95262.91;;;10.20;54.98
41703;BME280;861;48.808;9.006;2024-03-29T02:53:51;95283.56;;;10.33;54.99
41703;BME280;861;48.808;9.006;2024-03-29T02:56:18;95282.13;;;10.29;54.32
41703;BME280;861;48.808;9.006;2024-03-29T02:58:47;95285.50;;;10.17;55.11
41703;BME280;861;48.808;9.006;2024-03-29T03:01:14;95299.59;;;10.12;55.42
41703;BME280;861;48.808;9.006;2024-03-29T03:03:40;95291.44;;;10.12;55.14
41703;BME280;861;48.808;9.006;2024-03-29T03:06:07;95293.13;;;10.06;56.03
41703;BME280;861;48.808;9.006;2024-03-29T03:08:34;95292.22;;;10.12;56.11
41703;BME280;861;48.808;9.006;2024-03-29T03:11:19;95278.19;;;10.14;55.87
41703;BME280;861;48.808;9.006;2024-03-29T03:13:45;95299.59;;;10.12;55.64
41703;BME280;861;48.808;9.006;2024-03-29T03:16:12;95303.44;;;10.14;55.84
41703;BME280;861;48.808;9.006;2024-03-29T03:18:39;95305.84;;;9.93;56.64
41703;BME280;861;48.808;9.006;2024-03-29T03:21:05;95315.28;;;9.88;56.58
41703;BME280;861;48.808;9.006;2024-03-29T03:23:32;95325.88;;;9.83;56.68
41703;BME280;861;48.808;9.006;2024-03-29T03:26:02;95341.78;;;9.84;56.54
41703;BME280;861;48.808;9.006;2024-03-29T03:28:32;95351.69;;;9.55;57.37
41703;BME280;861;48.808;9.006;2024-03-29T03:30:59;95366.19;;;9.49;57.21
41703;BME280;861;48.808;9.006;2024-03-29T03:33:25;95365.31;;;9.36;57.69
41703;BME280;861;48.808;9.006;2024-03-29T03:35:52;95370.50;;;9.26;58.20
41703;BME280;861;48.808;9.006;2024-03-29T03:38:19;95374.94;;;8.97;58.62
41703;BME280;861;48.808;9.006;2024-03-29T03:40:45;95366.19;;;9.09;58.24
41703;BME280;861;48.808;9.006;2024-03-29T03:43:12;95371.53;;;9.13;58.36
41703;BME280;861;48.808;9.006;2024-03-29T03:45:40;95338.13;;;8.54;59.88
41703;BME280;861;48.808;9.006;2024-03-29T03:48:10;95335.94;;;8.88;59.89
41703;BME280;861;48.808;9.006;2024-03-29T03:50:40;95347.03;;;8.97;59.23
41703;BME280;861;48.808;9.006;2024-03-29T03:53:08;95326.19;;;8.71;59.55
41703;BME280;861;48.808;9.006;2024-03-29T03:55:38;95299.59;;;8.62;60.84
41703;BME280;861;48.808;9.006;2024-03-29T03:58:05;95289.66;;;8.75;60.62
41703;BME280;861;48.808;9.006;2024-03-29T04:00:31;95285.22;;;8.85;61.08
41703;BME280;861;48.808;9.006;2024-03-29T04:02:58;95269.44;;;8.99;61.15
41703;BME280;861;48.808;9.006;2024-03-29T04:05:24;95259.97;;;9.07;61.42
41703;BME280;861;48.808;9.006;2024-03-29T04:07:52;95253.34;;;9.28;61.86
41703;BME280;861;48.808;9.006;2024-03-29T04:10:19;95242.91;;;9.43;61.73
41703;BME280;861;48.808;9.006;2024-03-29T04:12:46;95223.38;;;9.67;61.10
41703;BME280;861;48.808;9.006;2024-03-29T04:15:12;95215.72;;;9.78;60.70
41703;BME280;861;48.808;9.006;2024-03-29T04:17:39;95219.03;;;9.86;60.61
41703;BME280;861;48.808;9.006;2024-03-29T04:20:06;95219.97;;;9.95;59.74
41703;BME280;861;48.808;9.006;2024-03-29T04:22:32;95236.22;;;9.99;59.88
41703;BME280;861;48.808;9.006;2024-03-29T04:24:59;95240.56;;;10.28;58.23
41703;BME280;861;48.808;9.006;2024-03-29T04:27:26;95260.59;;;10.34;56.83
41703;BME280;861;48.808;9.006;2024-03-29T04:29:54;95281.66;;;9.47;61.49
41703;BME280;861;48.808;9.006;2024-03-29T04:32:23;95311.25;;;9.41;60.83
41703;BME280;861;48.808;9.006;2024-03-29T04:34:50;95334.91;;;9.60;59.69
41703;BME280;861;48.808;9.006;2024-03-29T04:37:18;95339.19;;;9.42;58.95
41703;BME280;861;48.808;9.006;2024-03-29T04:39:45;95329.72;;;9.30;59.08
41703;BME280;861;48.808;9.006;2024-03-29T04:42:13;95329.56;;;9.17;59.75
41703;BME280;861;48.808;9.006;2024-03-29T04:44:41;95360.72;;;8.90;60.81
41703;BME280;861;48.808;9.006;2024-03-29T04:47:08;95348.69;;;8.45;62.77
41703;BME280;861;48.808;9.006;2024-03-29T04:49:36;95309.19;;;8.67;61.35
41703;BME280;861;48.808;9.006;2024-03-29T04:52:04;95303.53;;;8.58;61.03
41703;BME280;861;48.808;9.006;2024-03-29T04:54:33;95298.09;;;9.00;61.35
41703;BME280;861;48.808;9.006;2024-03-29T04:57:01;95286.50;;;8.57;61.84
41703;BME280;861;48.808;9.006;2024-03-29T04:59:30;95245.22;;;8.69;60.51
41703;BME280;861;48.808;9.006;2024-03-29T05:01:58;95232.00;;;8.91;60.33
41703;BME280;861;48.808;9.006;2024-03-29T05:04:25;95239.44;;;8.87;60.20
41703;BME280;861;48.808;9.006;2024-03-29T05:06:59;95258.28;;;8.94;60.44
41703;BME280;861;48.808;9.006;2024-03-29T05:09:26;95255.56;;;9.13;60.20
41703;BME280;861;48.808;9.006;2024-03-29T05:11:53;95266.16;;;9.27;60.56
41703;BME280;861;48.808;9.006;2024-03-29T05:14:21;95266.47;;;8.51;62.32
41703;BME280;861;48.808;9.006;2024-03-29T05:16:49;95269.03;;;9.01;61.39
41703;BME280;861;48.808;9.006;2024-03-29T05:19:16;95275.47;;;9.26;61.21
41703;BME280;861;48.808;9.006;2024-03-29T05:21:43;95279.78;;;9.24;60.86
41703;BME280;861;48.808;9.006;2024-03-29T05:24:10;95285.56;;;9.26;60.05
41703;BME280;861;48.808;9.006;2024-03-29T05:26:36;95286.00;;;9.24;60.45
41703;BME280;861;48.808;9.006;2024-03-29T05:29:03;95288.00;;;9.40;59.79
41703;BME280;861;48.808;9.006;2024-03-29T05:31:30;95290.00;;;9.36;59.71
41703;BME280;861;48.808;9.006;2024-03-29T05:33:57;95287.28;;;9.36;59.57
41703;BME280;861;48.808;9.006;2024-03-29T05:36:26;95296.69;;;9.51;59.10
41703;BME280;861;48.808;9.006;2024-03-29T05:38:53;95291.09;;;9.58;58.81
41703;BME280;861;48.808;9.006;2024-03-29T05:41:21;95283.34;;;9.41;59.48
41703;BME280;861;48.808;9.006;2024-03-29T05:43:48;95294.19;;;9.41;59.47
41703;BME280;861;48.808;9.006;2024-03-29T05:46:16;95293.91;;;9.55;59.83
41703;BME280;861;48.808;9.006;2024-03-29T05:48:44;95294.50;;;9.62;59.19
41703;BME280;861;48.808;9.006;2024-03-29T05:51:11;95293.13;;;9.34;59.42
41703;BME280;861;48.808;9.006;2024-03-29T05:53:37;95311.19;;;9.45;59.31
41703;BME280;861;48.808;9.006;2024-03-29T05:56:05;95309.97;;;9.46;59.73
41703;BME280;861;48.808;9.006;2024-03-29T05:58:36;95312.44;;;9.40;59.62
41703;BME280;861;48.808;9.006;2024-03-29T06:01:03;95308.94;;;9.59;58.54
41703;BME280;861;48.808;9.006;2024-03-29T06:03:30;95312.69;;;9.65;58.32
41703;BME280;861;48.808;9.006;2024-03-29T06:05:57;95313.19;;;9.60;58.45
41703;BME280;861;48.808;9.006;2024-03-29T06:08:23;95315.16;;;9.76;58.45
41703;BME280;861;48.808;9.006;2024-03-29T06:10:52;95303.22;;;9.89;58.32
41703;BME280;861;48.808;9.006;2024-03-29T06:13:18;95302.47;;;10.05;57.64
41703;BME280;861;48.808;9.006;2024-03-29T06:16:14;95292.03;;;10.03;58.18
41703;BME280;861;48.808;9.006;2024-03-29T06:18:59;95294.88;;;10.16;57.50
41703;BME280;861;48.808;9.006;2024-03-29T06:21:27;95300.03;;;10.26;56.94
41703;BME280;861;48.808;9.006;2024-03-29T06:23:53;95294.88;;;10.32;57.00
41703;BME280;861;48.808;9.006;2024-03-29T06:26:20;95294.06;;;10.63;57.24
41703;BME280;861;48.808;9.006;2024-03-29T06:28:47;95323.66;;;10.61;55.77
41703;BME280;861;48.808;9.006;2024-03-29T06:31:13;95325.28;;;10.27;55.84
41703;BME280;861;48.808;9.006;2024-03-29T06:33:40;95324.66;;;10.03;56.94
41703;BME280;861;48.808;9.006;2024-03-29T06:36:07;95326.94;;;10.05;57.92
41703;BME280;861;48.808;9.006;2024-03-29T06:38:33;95321.81;;;10.26;56.28
41703;BME280;861;48.808;9.006;2024-03-29T06:41:00;95313.56;;;10.14;56.48
41703;BME280;861;48.808;9.006;2024-03-29T06:43:26;95318.94;;;9.98;58.23
41703;BME280;861;48.808;9.006;2024-03-29T06:45:53;95311.41;;;10.05;57.46
41703;BME280;861;48.808;9.006;2024-03-29T06:48:19;95304.41;;;10.04;58.10
41703;BME280;861;48.808;9.006;2024-03-29T06:50:46;95307.91;;;10.05;57.30
41703;BME280;861;48.808;9.006;2024-03-29T06:53:12;95302.41;;;10.24;57.22
41703;BME280;861;48.808;9.006;2024-03-29T06:55:39;95290.53;;;10.34;58.06
41703;BME280;861;48.808;9.006;2024-03-29T06:58:05;95289.31;;;10.51;55.70
41703;BME280;861;48.808;9.006;2024-03-29T07:00:32;95283.53;;;10.49;56.67
41703;BME280;861;48.808;9.006;2024-03-29T07:02:59;95278.25;;;10.58;55.47
41703;BME280;861;48.808;9.006;2024-03-29T07:05:25;95275.84;;;10.16;56.36
41703;BME280;861;48.808;9.006;2024-03-29T07:07:52;95264.69;;;10.26;56.17
41703;BME280;861;48.808;9.006;2024-03-29T07:10:20;95276.91;;;10.34;56.08
41703;BME280;861;48.808;9.006;2024-03-29T07:12:46;95273.50;;;9.98;57.79
41703;BME280;861;48.808;9.006;2024-03-29T07:15:13;95271.56;;;9.99;56.84
41703;BME280;861;48.808;9.006;2024-03-29T07:17:39;95272.97;;;9.87;58.04
41703;BME280;861;48.808;9.006;2024-03-29T07:20:07;95284.59;;;9.72;57.34
41703;BME280;861;48.808;9.006;2024-03-29T07:22:34;95282.84;;;9.97;57.17
41703;BME280;861;48.808;9.006;2024-03-29T07:25:01;95287.34;;;9.88;55.80
41703;BME280;861;48.808;9.006;2024-03-29T07:27:28;95295.28;;;9.79;55.10
41703;BME280;861;48.808;9.006;2024-03-29T07:30:00;95322.41;;;9.82;55.67
41703;BME280;861;48.808;9.006;2024-03-29T07:32:30;95311.03;;;9.52;58.82
41703;BME280;861;48.808;9.006;2024-03-29T07:34:57;95313.63;;;9.75;58.26
41703;BME280;861;48.808;9.006;2024-03-29T07:37:25;95319.88;;;9.56;61.41
41703;BME280;861;48.808;9.006;2024-03-29T07:39:52;95317.50;;;9.58;61.15
41703;BME280;861;48.808;9.006;2024-03-29T07:42:18;95299.13;;;9.81;61.07
41703;BME280;861;48.808;9.006;2024-03-29T07:44:45;95301.03;;;10.00;60.44
41703;BME280;861;48.808;9.006;2024-03-29T07:47:12;95302.59;;;10.17;61.53
41703;BME280;861;48.808;9.006;2024-03-29T07:49:41;95303.97;;;10.25;62.22
41703;BME280;861;48.808;9.006;2024-03-29T07:52:08;95296.97;;;10.40;65.05
41703;BME280;861;48.808;9.006;2024-03-29T07:54:36;95306.00;;;10.37;66.35
41703;BME280;861;48.808;9.006;2024-03-29T07:57:02;95312.78;;;10.45;65.91
41703;BME280;861;48.808;9.006;2024-03-29T07:59:29;95348.56;;;10.12;67.61
41703;BME280;861;48.808;9.006;2024-03-29T08:01:55;95395.06;;;10.17;70.17
41703;BME280;861;48.808;9.006;2024-03-29T08:04:24;95413.78;;;9.37;72.28
41703;BME280;861;48.808;9.006;2024-03-29T08:06:52;95413.09;;;9.10;71.26
41703;BME280;861;48.808;9.006;2024-03-29T08:09:20;95411.06;;;9.14;72.31
41703;BME280;861;48.808;9.006;2024-03-29T08:11:46;95413.69;;;9.21;74.99
41703;BME280;861;48.808;9.006;2024-03-29T08:14:13;95407.63;;;9.33;74.87
41703;BME280;861;48.808;9.006;2024-03-29T08:16:40;95414.59;;;8.91;77.53
41703;BME280;861;48.808;9.006;2024-03-29T08:19:06;95410.84;;;9.05;77.76
41703;BME280;861;48.808;9.006;2024-03-29T08:21:33;95424.53;;;8.52;78.53
41703;BME280;861;48.808;9.006;2024-03-29T08:24:00;95421.00;;;8.78;78.78
41703;BME280;861;48.808;9.006;2024-03-29T08:26:29;95425.84;;;9.13;78.48
41703;BME280;861;48.808;9.006;2024-03-29T08:28:55;95431.72;;;8.88;78.97
41703;BME280;861;48.808;9.006;2024-03-29T08:31:23;95432.75;;;8.94;79.93
41703;BME280;861;48.808;9.006;2024-03-29T08:33:50;95439.84;;;8.88;80.34
41703;BME280;861;48.808;9.006;2024-03-29T08:36:18;95449.56;;;8.63;82.70
41703;BME280;861;48.808;9.006;2024-03-29T08:38:45;95442.66;;;8.58;83.25
41703;BME280;861;48.808;9.006;2024-03-29T08:41:13;95450.84;;;8.78;82.54
41703;BME280;861;48.808;9.006;2024-03-29T08:43:40;95465.38;;;8.68;82.91
41703;BME280;861;48.808;9.006;2024-03-29T08:46:06;95454.53;;;8.91;83.63
41703;BME280;861;48.808;9.006;2024-03-29T08:48:35;95457.66;;;8.89;83.28
41703;BME280;861;48.808;9.006;2024-03-29T08:51:04;95452.09;;;9.19;83.61
41703;BME280;861;48.808;9.006;2024-03-29T08:53:30;95454.09;;;9.39;83.06
41703;BME280;861;48.808;9.006;2024-03-29T08:55:57;95445.38;;;9.47;83.25
41703;BME280;861;48.808;9.006;2024-03-29T08:58:23;95450.03;;;9.27;84.59
41703;BME280;861;48.808;9.006;2024-03-29T09:00:55;95452.91;;;9.40;85.47
41703;BME280;861;48.808;9.006;2024-03-29T09:03:23;95445.63;;;9.13;84.72
41703;BME280;861;48.808;9.006;2024-03-29T09:05:52;95445.56;;;9.17;85.63
41703;BME280;861;48.808;9.006;2024-03-29T09:08:19;95454.03;;;9.19;88.05
41703;BME280;861;48.808;9.006;2024-03-29T09:10:46;95449.66;;;9.25;86.34
41703;BME280;861;48.808;9.006;2024-03-29T09:13:13;95452.84;;;9.43;86.43
41703;BME280;861;48.808;9.006;2024-03-29T09:15:40;95450.00;;;9.89;84.66
41703;BME280;861;48.808;9.006;2024-03-29T09:18:07;95447.94;;;10.16;83.72
41703;BME280;861;48.808;9.006;2024-03-29T09:20:44;95457.13;;;10.38;82.12
41703;BME280;861;48.808;9.006;2024-03-29T09:23:12;95450.06;;;10.25;84.08
41703;BME280;861;48.808;9.006;2024-03-29T09:25:43;95450.97;;;10.18;83.66
41703;BME280;861;48.808;9.006;2024-03-29T09:28:10;95451.97;;;10.08;85.57
41703;BME280;861;48.808;9.006;2024-03-29T09:30:37;95453.94;;;10.08;86.95
41703;BME280;861;48.808;9.006;2024-03-29T09:33:06;95444.28;;;10.23;86.84
41703;BME280;861;48.808;9.006;2024-03-29T09:35:37;95425.34;;;10.35;87.20
41703;BME280;861;48.808;9.006;2024-03-29T09:38:04;95416.44;;;10.51;84.98
41703;BME280;861;48.808;9.006;2024-03-29T09:40:31;95397.47;;;10.79;84.05
41703;BME280;861;48.808;9.006;2024-03-29T09:43:01;95371.34;;;10.98;84.79
41703;BME280;861;48.808;9.006;2024-03-29T09:45:38;95346.94;;;10.95;84.38
41703;BME280;861;48.808;9.006;2024-03-29T09:48:07;95366.75;;;10.95;84.58
41703;BME280;861;48.808;9.006;2024-03-29T09:50:36;95370.28;;;11.08;85.16
41703;BME280;861;48.808;9.006;2024-03-29T09:53:06;95381.41;;;11.30;84.40
41703;BME280;861;48.808;9.006;2024-03-29T09:55:36;95379.69;;;11.36;85.11
41703;BME280;861;48.808;9.006;2024-03-29T09:58:04;95394.88;;;11.21;85.02
41703;BME280;861;48.808;9.006;2024-03-29T10:00:32;95387.88;;;11.36;85.06
41703;BME280;861;48.808;9.006;2024-03-29T10:03:00;95398.94;;;11.29;86.65
41703;BME280;861;48.808;9.006;2024-03-29T10:05:28;95385.94;;;11.49;85.01
41703;BME280;861;48.808;9.006;2024-03-29T10:07:57;95389.44;;;11.78;84.94
41703;BME280;861;48.808;9.006;2024-03-29T10:10:33;95391.88;;;12.01;82.80
41703;BME280;861;48.808;9.006;2024-03-29T10:12:59;95390.69;;;12.02;81.34
41703;BME280;861;48.808;9.006;2024-03-29T10:15:29;95390.03;;;12.10;81.81
41703;BME280;861;48.808;9.006;2024-03-29T10:17:59;95381.53;;;11.96;81.71
41703;BME280;861;48.808;9.006;2024-03-29T10:20:27;95379.88;;;11.98;84.27
41703;BME280;861;48.808;9.006;2024-03-29T10:22:55;95374.88;;;12.34;82.82
41703;BME280;861;48.808;9.006;2024-03-29T10:25:24;95376.38;;;12.61;82.40
41703;BME280;861;48.808;9.006;2024-03-29T10:27:50;95367.84;;;12.84;81.95
41703;BME280;861;48.808;9.006;2024-03-29T10:30:20;95363.88;;;12.97;81.19
41703;BME280;861;48.808;9.006;2024-03-29T10:32:47;95358.00;;;12.86;81.94
41703;BME280;861;48.808;9.006;2024-03-29T10:35:14;95360.19;;;13.04;81.99
41703;BME280;861;48.808;9.006;2024-03-29T10:37:43;95361.16;;;12.97;81.93
41703;BME280;861;48.808;9.006;2024-03-29T10:40:11;95362.09;;;13.16;81.04
41703;BME280;861;48.808;9.006;2024-03-29T10:42:44;95357.88;;;13.36;80.24
41703;BME280;861;48.808;9.006;2024-03-29T10:45:15;95369.38;;;13.31;81.65
41703;BME280;861;48.808;9.006;2024-03-29T10:47:44;95359.19;;;13.32;81.81
41703;BME280;861;48.808;9.006;2024-03-29T10:50:19;95370.13;;;13.32;82.34
41703;BME280;861;48.808;9.006;2024-03-29T10:52:46;95376.88;;;13.40;82.97
41703;BME280;861;48.808;9.006;2024-03-29T10:55:14;95375.56;;;13.44;82.76
41703;BME280;861;48.808;9.006;2024-03-29T10:57:42;95383.91;;;13.41;83.58
41703;BME280;861;48.808;9.006;2024-03-29T11:00:16;95376.97;;;13.70;82.28
41703;BME280;861;48.808;9.006;2024-03-29T11:03:26;95376.91;;;13.83;81.54
41703;BME280;861;48.808;9.006;2024-03-29T11:06:26;95368.75;;;13.92;81.14
41703;BME280;861;48.808;9.006;2024-03-29T11:08:59;95383.59;;;14.13;80.14
41703;BME280;861;48.808;9.006;2024-03-29T11:11:29;95377.66;;;14.05;81.63
41703;BME280;861;48.808;9.006;2024-03-29T11:14:18;95379.81;;;14.10;82.48
41703;BME280;861;48.808;9.006;2024-03-29T11:16:50;95376.13;;;14.35;82.28
41703;BME280;861;48.808;9.006;2024-03-29T11:19:21;95371.69;;;14.59;81.15
41703;BME280;861;48.808;9.006;2024-03-29T11:21:49;95382.56;;;14.41;80.29
41703;BME280;861;48.808;9.006;2024-03-29T11:24:27;95360.66;;;14.50;83.01
41703;BME280;861;48.808;9.006;2024-03-29T11:26:55;95353.19;;;14.81;81.84
41703;BME280;861;48.808;9.006;2024-03-29T11:29:24;95354.56;;;14.94;81.47
41703;BME280;861;48.808;9.006;2024-03-29T11:31:57;95353.88;;;14.63;72.63
41703;BME280;861;48.808;9.006;2024-03-29T11:34:25;95346.50;;;14.42;72.40
41703;BME280;861;48.808;9.006;2024-03-29T11:36:51;95345.19;;;14.56;72.30
41703;BME280;861;48.808;9.006;2024-03-29T11:39:23;95346.78;;;14.84;72.69
41703;BME280;861;48.808;9.006;2024-03-29T11:41:51;95342.53;;;15.01;69.86
41703;BME280;861;48.808;9.006;2024-03-29T11:44:20;95334.50;;;15.33;69.91
41703;BME280;861;48.808;9.006;2024-03-29T11:46:50;95341.34;;;15.29;68.08
41703;BME280;861;48.808;9.006;2024-03-29T11:49:17;95358.72;;;15.08;70.39
41703;BME280;861;48.808;9.006;2024-03-29T11:51:44;95368.63;;;15.32;68.43
41703;BME280;861;48.808;9.006;2024-03-29T11:54:10;95371.06;;;15.30;68.77
41703;BME280;861;48.808;9.006;2024-03-29T11:56:37;95369.22;;;15.09;67.56
41703;BME280;861;48.808;9.006;2024-03-29T11:59:04;95378.50;;;15.03;67.24
41703;BME280;861;48.808;9.006;2024-03-29T12:01:33;95371.97;;;15.09;67.84
41703;BME280;861;48.808;9.006;2024-03-29T12:04:02;95374.72;;;15.36;68.68
41703;BME280;861;48.808;9.006;2024-03-29T12:06:29;95373.69;;;15.43;68.94
41703;BME280;861;48.808;9.006;2024-03-29T12:08:56;95366.22;;;15.53;69.14
41703;BME280;861;48.808;9.006;2024-03-29T12:11:23;95370.16;;;15.70;67.49
41703;BME280;861;48.808;9.006;2024-03-29T12:13:52;95381.28;;;15.75;66.84
41703;BME280;861;48.808;9.006;2024-03-29T12:16:18;95386.47;;;15.91;66.44
41703;BME280;861;48.808;9.006;2024-03-29T12:18:47;95389.44;;;16.20;71.83
41703;BME280;861;48.808;9.006;2024-03-29T12:21:15;95387.19;;;16.10;73.43
41703;BME280;861;48.808;9.006;2024-03-29T12:23:48;95377.63;;;16.47;73.30
41703;BME280;861;48.808;9.006;2024-03-29T12:26:17;95373.75;;;16.62;72.38
41703;BME280;861;48.808;9.006;2024-03-29T12:28:49;95371.06;;;16.53;72.45
41703;BME280;861;48.808;9.006;2024-03-29T12:31:16;95381.28;;;16.44;72.35
41703;BME280;861;48.808;9.006;2024-03-29T12:33:52;95379.81;;;16.34;72.93
41703;BME280;861;48.808;9.006;2024-03-29T12:36:22;95396.94;;;16.70;70.76
41703;BME280;861;48.808;9.006;2024-03-29T12:38:49;95375.38;;;16.78;72.12
41703;BME280;861;48.808;9.006;2024-03-29T12:41:18;95393.19;;;16.59;73.71
41703;BME280;861;48.808;9.006;2024-03-29T12:43:46;95387.00;;;16.73;72.30
41703;BME280;861;48.808;9.006;2024-03-29T12:46:13;95363.22;;;16.94;71.80
41703;BME280;861;48.808;9.006;2024-03-29T12:48:39;95376.84;;;16.88;71.48
41703;BME280;861;48.808;9.006;2024-03-29T12:51:07;95378.38;;;16.89;71.46
41703;BME280;861;48.808;9.006;2024-03-29T12:53:34;95383.09;;;16.89;71.54
41703;BME280;861;48.808;9.006;2024-03-29T12:56:04;95394.63;;;16.78;72.78
41703;BME280;861;48.808;9.006;2024-03-29T12:58:31;95398.84;;;16.88;70.90
41703;BME280;861;48.808;9.006;2024-03-29T13:00:58;95402.94;;;16.93;70.21
41703;BME280;861;48.808;9.006;2024-03-29T13:03:25;95407.09;;;16.88;69.75
41703;BME280;861;48.808;9.006;2024-03-29T13:05:52;95382.56;;;16.75;71.01
41703;BME280;861;48.808;9.006;2024-03-29T13:08:19;95378.09;;;16.87;71.03
41703;BME280;861;48.808;9.006;2024-03-29T13:10:46;95384.22;;;16.82;71.01
41703;BME280;861;48.808;9.006;2024-03-29T13:13:13;95368.28;;;16.86;70.70
41703;BME280;861;48.808;9.006;2024-03-29T13:15:40;95364.69;;;17.04;70.99
41703;BME280;861;48.808;9.006;2024-03-29T13:18:08;95347.53;;;17.56;69.63
41703;BME280;861;48.808;9.006;2024-03-29T13:20:38;95365.25;;;18.22;67.41
41703;BME280;861;48.808;9.006;2024-03-29T13:23:10;95380.59;;;18.72;67.07
41703;BME280;861;48.808;9.006;2024-03-29T13:25:37;95378.94;;;19.29;63.62
41703;BME280;861;48.808;9.006;2024-03-29T13:28:03;95375.97;;;19.53;61.70
41703;BME280;861;48.808;9.006;2024-03-29T13:30:30;95360.31;;;19.64;60.78
41703;BME280;861;48.808;9.006;2024-03-29T13:32:57;95367.31;;;19.86;61.66